sensor_id;sensor_type;location;lat;lon;timestamp;temperature;humidity
74178;DHT22;62540;48.456;-4.456;2023-07-02T00:01:02;18.43;69.81
74178;DHT22;62540;48.456;-4.456;2023-07-02T00:03:28;18.44;69.79
74178;DHT22;62540;48.456;-4.456;2023-07-02T00:05:54;18.43;69.88
74178;DHT22;62540;48.456;-4.456;2023-07-02T00:08:20;18.40;69.82
74178;DHT22;62540;48.456;-4.456;2023-07-02T00:10:45;18.36;70.01
74178;DHT22;62540;48.456;-4.456;2023-07-02T00:13:11;18.33;70.25
74178;DHT22;62540;48.456;-4.456;2023-07-02T00:15:36;18.32;70.56
74178;DHT22;62540;48.456;-4.456;2023-07-02T00:18:01;18.34;70.49
74178;DHT22;62540;48.456;-4.456;2023-07-02T00:20:27;18.26;70.72
74178;DHT22;62540;48.456;-4.456;2023-07-02T00:22:52;18.26;70.78
74178;DHT22;62540;48.456;-4.456;2023-07-02T00:25:19;18.27;70.62
74178;DHT22;62540;48.456;-4.456;2023-07-02T00:27:45;18.27;70.47
74178;DHT22;62540;48.456;-4.456;2023-07-02T00:30:11;18.29;70.36
74178;DHT22;62540;48.456;-4.456;2023-07-02T00:32:36;18.29;70.36
74178;DHT22;62540;48.456;-4.456;2023-07-02T00:35:02;18.23;70.33
74178;DHT22;62540;48.456;-4.456;2023-07-02T00:37:27;18.19;70.48
74178;DHT22;62540;48.456;-4.456;2023-07-02T00:39:52;18.14;70.38
74178;DHT22;62540;48.456;-4.456;2023-07-02T00:42:18;18.12;70.41
74178;DHT22;62540;48.456;-4.456;2023-07-02T00:44:43;18.12;70.32
74178;DHT22;62540;48.456;-4.456;2023-07-02T00:47:10;18.10;70.27
74178;DHT22;62540;48.456;-4.456;2023-07-02T00:49:36;18.00;70.64
74178;DHT22;62540;48.456;-4.456;2023-07-02T00:52:02;17.96;70.51
74178;DHT22;62540;48.456;-4.456;2023-07-02T00:54:28;17.88;70.64
74178;DHT22;62540;48.456;-4.456;2023-07-02T00:56:54;17.85;70.64
74178;DHT22;62540;48.456;-4.456;2023-07-02T00:59:19;17.85;70.61
74178;DHT22;62540;48.456;-4.456;2023-07-02T01:01:45;17.89;70.48
74178;DHT22;62540;48.456;-4.456;2023-07-02T01:04:17;17.89;70.32
74178;DHT22;62540;48.456;-4.456;2023-07-02T01:06:43;17.85;70.29
74178;DHT22;62540;48.456;-4.456;2023-07-02T01:09:09;17.83;70.29
74178;DHT22;62540;48.456;-4.456;2023-07-02T01:11:40;17.85;70.16
74178;DHT22;62540;48.456;-4.456;2023-07-02T01:14:09;17.88;70.09
74178;DHT22;62540;48.456;-4.456;2023-07-02T01:16:37;17.88;70.04
74178;DHT22;62540;48.456;-4.456;2023-07-02T01:19:11;17.86;70.02
74178;DHT22;62540;48.456;-4.456;2023-07-02T01:21:37;17.85;70.02
74178;DHT22;62540;48.456;-4.456;2023-07-02T01:24:04;17.83;69.90
74178;DHT22;62540;48.456;-4.456;2023-07-02T01:26:33;17.83;69.84
74178;DHT22;62540;48.456;-4.456;2023-07-02T01:28:59;17.82;69.81
74178;DHT22;62540;48.456;-4.456;2023-07-02T01:31:25;17.77;69.83
74178;DHT22;62540;48.456;-4.456;2023-07-02T01:33:51;17.72;69.84
74178;DHT22;62540;48.456;-4.456;2023-07-02T01:36:16;17.72;69.92
74178;DHT22;62540;48.456;-4.456;2023-07-02T01:38:42;17.71;69.86
74178;DHT22;62540;48.456;-4.456;2023-07-02T01:41:07;17.68;69.86
74178;DHT22;62540;48.456;-4.456;2023-07-02T01:43:32;17.65;69.96
74178;DHT22;62540;48.456;-4.456;2023-07-02T01:45:58;17.59;70.10
74178;DHT22;62540;48.456;-4.456;2023-07-02T01:48:24;17.55;70.23
74178;DHT22;62540;48.456;-4.456;2023-07-02T01:50:50;17.54;70.44
74178;DHT22;62540;48.456;-4.456;2023-07-02T01:53:15;17.52;70.52
74178;DHT22;62540;48.456;-4.456;2023-07-02T01:55:40;17.51;70.41
74178;DHT22;62540;48.456;-4.456;2023-07-02T01:58:06;17.52;70.32
74178;DHT22;62540;48.456;-4.456;2023-07-02T02:00:32;17.54;70.19
74178;DHT22;62540;48.456;-4.456;2023-07-02T02:02:57;17.51;70.16
74178;DHT22;62540;48.456;-4.456;2023-07-02T02:05:23;17.49;70.22
74178;DHT22;62540;48.456;-4.456;2023-07-02T02:07:48;17.51;70.18
74178;DHT22;62540;48.456;-4.456;2023-07-02T02:10:13;17.49;70.18
74178;DHT22;62540;48.456;-4.456;2023-07-02T02:12:39;17.49;70.19
74178;DHT22;62540;48.456;-4.456;2023-07-02T02:15:05;17.45;70.31
74178;DHT22;62540;48.456;-4.456;2023-07-02T02:17:31;17.49;70.32
74178;DHT22;62540;48.456;-4.456;2023-07-02T02:19:57;17.49;70.33
74178;DHT22;62540;48.456;-4.456;2023-07-02T02:22:22;17.47;70.33
74178;DHT22;62540;48.456;-4.456;2023-07-02T02:24:47;17.47;70.28
74178;DHT22;62540;48.456;-4.456;2023-07-02T02:27:13;17.47;70.32
74178;DHT22;62540;48.456;-4.456;2023-07-02T02:29:38;17.48;70.22
74178;DHT22;62540;48.456;-4.456;2023-07-02T02:32:03;17.48;70.31
74178;DHT22;62540;48.456;-4.456;2023-07-02T02:34:29;17.47;70.27
74178;DHT22;62540;48.456;-4.456;2023-07-02T02:36:54;17.47;70.30
74178;DHT22;62540;48.456;-4.456;2023-07-02T02:39:20;17.47;70.29
74178;DHT22;62540;48.456;-4.456;2023-07-02T02:41:45;17.42;70.38
74178;DHT22;62540;48.456;-4.456;2023-07-02T02:44:11;17.40;70.39
74178;DHT22;62540;48.456;-4.456;2023-07-02T02:46:38;17.37;70.46
74178;DHT22;62540;48.456;-4.456;2023-07-02T02:49:03;17.41;70.52
74178;DHT22;62540;48.456;-4.456;2023-07-02T02:51:28;17.35;70.47
74178;DHT22;62540;48.456;-4.456;2023-07-02T02:53:54;17.34;70.47
74178;DHT22;62540;48.456;-4.456;2023-07-02T02:56:19;17.34;70.57
74178;DHT22;62540;48.456;-4.456;2023-07-02T02:58:45;17.37;70.47
74178;DHT22;62540;48.456;-4.456;2023-07-02T03:01:10;17.30;70.62
74178;DHT22;62540;48.456;-4.456;2023-07-02T03:03:38;17.32;70.57
74178;DHT22;62540;48.456;-4.456;2023-07-02T03:06:05;17.35;70.51
74178;DHT22;62540;48.456;-4.456;2023-07-02T03:08:30;17.35;70.42
74178;DHT22;62540;48.456;-4.456;2023-07-02T03:10:56;17.34;70.43
74178;DHT22;62540;48.456;-4.456;2023-07-02T03:13:22;17.27;70.51
74178;DHT22;62540;48.456;-4.456;2023-07-02T03:15:47;17.23;70.65
74178;DHT22;62540;48.456;-4.456;2023-07-02T03:18:12;17.19;70.81
74178;DHT22;62540;48.456;-4.456;2023-07-02T03:20:38;17.17;70.66
74178;DHT22;62540;48.456;-4.456;2023-07-02T03:23:03;17.16;70.64
74178;DHT22;62540;48.456;-4.456;2023-07-02T03:25:28;17.13;70.64
74178;DHT22;62540;48.456;-4.456;2023-07-02T03:27:54;17.11;70.60
74178;DHT22;62540;48.456;-4.456;2023-07-02T03:30:19;17.07;70.61
74178;DHT22;62540;48.456;-4.456;2023-07-02T03:32:45;17.07;70.53
74178;DHT22;62540;48.456;-4.456;2023-07-02T03:35:10;17.07;70.49
74178;DHT22;62540;48.456;-4.456;2023-07-02T03:37:35;17.10;70.39
74178;DHT22;62540;48.456;-4.456;2023-07-02T03:40:01;17.04;70.35
74178;DHT22;62540;48.456;-4.456;2023-07-02T03:42:26;17.09;70.36
74178;DHT22;62540;48.456;-4.456;2023-07-02T03:44:51;17.03;70.41
74178;DHT22;62540;48.456;-4.456;2023-07-02T03:47:17;17.03;70.37
74178;DHT22;62540;48.456;-4.456;2023-07-02T03:49:44;17.03;70.36
74178;DHT22;62540;48.456;-4.456;2023-07-02T03:52:10;17.03;70.38
74178;DHT22;62540;48.456;-4.456;2023-07-02T03:54:35;17.00;70.36
74178;DHT22;62540;48.456;-4.456;2023-07-02T03:57:01;17.02;70.33
74178;DHT22;62540;48.456;-4.456;2023-07-02T03:59:26;17.00;70.32
74178;DHT22;62540;48.456;-4.456;2023-07-02T04:01:51;17.03;70.24
74178;DHT22;62540;48.456;-4.456;2023-07-02T04:04:17;17.09;70.17
74178;DHT22;62540;48.456;-4.456;2023-07-02T04:06:42;17.07;70.18
74178;DHT22;62540;48.456;-4.456;2023-07-02T04:09:07;17.10;70.21
74178;DHT22;62540;48.456;-4.456;2023-07-02T04:11:33;17.10;70.14
74178;DHT22;62540;48.456;-4.456;2023-07-02T04:13:58;17.13;70.14
74178;DHT22;62540;48.456;-4.456;2023-07-02T04:16:23;17.13;70.13
74178;DHT22;62540;48.456;-4.456;2023-07-02T04:18:49;17.13;70.24
74178;DHT22;62540;48.456;-4.456;2023-07-02T04:21:14;17.13;70.27
74178;DHT22;62540;48.456;-4.456;2023-07-02T04:23:39;17.17;70.24
74178;DHT22;62540;48.456;-4.456;2023-07-02T04:26:05;17.17;70.46
74178;DHT22;62540;48.456;-4.456;2023-07-02T04:28:31;17.16;70.61
74178;DHT22;62540;48.456;-4.456;2023-07-02T04:30:56;17.16;70.94
74178;DHT22;62540;48.456;-4.456;2023-07-02T04:33:22;17.13;71.02
74178;DHT22;62540;48.456;-4.456;2023-07-02T04:35:47;17.17;71.08
74178;DHT22;62540;48.456;-4.456;2023-07-02T04:38:12;17.20;71.09
74178;DHT22;62540;48.456;-4.456;2023-07-02T04:40:38;17.24;71.18
74178;DHT22;62540;48.456;-4.456;2023-07-02T04:43:03;17.32;71.10
74178;DHT22;62540;48.456;-4.456;2023-07-02T04:45:30;17.35;71.19
74178;DHT22;62540;48.456;-4.456;2023-07-02T04:48:04;17.37;71.21
74178;DHT22;62540;48.456;-4.456;2023-07-02T04:50:30;17.40;71.29
74178;DHT22;62540;48.456;-4.456;2023-07-02T04:52:55;17.42;71.33
74178;DHT22;62540;48.456;-4.456;2023-07-02T04:55:21;17.49;71.31
74178;DHT22;62540;48.456;-4.456;2023-07-02T04:57:47;17.52;71.27
74178;DHT22;62540;48.456;-4.456;2023-07-02T05:00:12;17.59;71.11
74178;DHT22;62540;48.456;-4.456;2023-07-02T05:02:38;17.64;71.06
74178;DHT22;62540;48.456;-4.456;2023-07-02T05:05:04;17.68;71.12
74178;DHT22;62540;48.456;-4.456;2023-07-02T05:07:29;17.71;71.08
74178;DHT22;62540;48.456;-4.456;2023-07-02T05:09:55;17.75;71.15
74178;DHT22;62540;48.456;-4.456;2023-07-02T05:12:20;17.81;71.11
74178;DHT22;62540;48.456;-4.456;2023-07-02T05:14:46;17.86;71.02
74178;DHT22;62540;48.456;-4.456;2023-07-02T05:17:11;17.90;70.99
74178;DHT22;62540;48.456;-4.456;2023-07-02T05:19:38;17.98;71.02
74178;DHT22;62540;48.456;-4.456;2023-07-02T05:22:05;18.00;70.97
74178;DHT22;62540;48.456;-4.456;2023-07-02T05:24:31;18.06;71.05
74178;DHT22;62540;48.456;-4.456;2023-07-02T05:26:56;18.06;71.01
74178;DHT22;62540;48.456;-4.456;2023-07-02T05:29:21;18.10;71.05
74178;DHT22;62540;48.456;-4.456;2023-07-02T05:31:47;18.13;71.07
74178;DHT22;62540;48.456;-4.456;2023-07-02T05:34:12;18.17;71.04
74178;DHT22;62540;48.456;-4.456;2023-07-02T05:36:38;18.19;70.98
74178;DHT22;62540;48.456;-4.456;2023-07-02T05:39:03;18.29;70.97
74178;DHT22;62540;48.456;-4.456;2023-07-02T05:41:28;18.29;70.89
74178;DHT22;62540;48.456;-4.456;2023-07-02T05:43:59;18.34;70.90
74178;DHT22;62540;48.456;-4.456;2023-07-02T05:46:24;18.40;70.86
74178;DHT22;62540;48.456;-4.456;2023-07-02T05:48:50;18.47;70.86
74178;DHT22;62540;48.456;-4.456;2023-07-02T05:51:22;18.53;70.85
74178;DHT22;62540;48.456;-4.456;2023-07-02T05:53:48;18.58;70.84
74178;DHT22;62540;48.456;-4.456;2023-07-02T05:56:13;18.63;70.73
74178;DHT22;62540;48.456;-4.456;2023-07-02T05:58:39;18.64;70.65
74178;DHT22;62540;48.456;-4.456;2023-07-02T06:01:04;18.71;70.63
74178;DHT22;62540;48.456;-4.456;2023-07-02T06:03:31;18.72;70.53
74178;DHT22;62540;48.456;-4.456;2023-07-02T06:05:56;18.75;70.51
74178;DHT22;62540;48.456;-4.456;2023-07-02T06:08:22;18.77;70.57
74178;DHT22;62540;48.456;-4.456;2023-07-02T06:10:47;18.79;70.58
74178;DHT22;62540;48.456;-4.456;2023-07-02T06:13:13;18.78;70.54
74178;DHT22;62540;48.456;-4.456;2023-07-02T06:15:39;18.79;70.60
74178;DHT22;62540;48.456;-4.456;2023-07-02T06:18:04;18.83;70.62
74178;DHT22;62540;48.456;-4.456;2023-07-02T06:20:30;18.87;70.55
74178;DHT22;62540;48.456;-4.456;2023-07-02T06:22:55;18.87;70.62
74178;DHT22;62540;48.456;-4.456;2023-07-02T06:25:21;18.85;70.59
74178;DHT22;62540;48.456;-4.456;2023-07-02T06:27:46;18.83;70.54
74178;DHT22;62540;48.456;-4.456;2023-07-02T06:30:12;18.79;70.66
74178;DHT22;62540;48.456;-4.456;2023-07-02T06:32:37;18.71;70.64
74178;DHT22;62540;48.456;-4.456;2023-07-02T06:35:03;18.72;70.71
74178;DHT22;62540;48.456;-4.456;2023-07-02T06:37:31;18.67;70.85
74178;DHT22;62540;48.456;-4.456;2023-07-02T06:39:57;18.72;70.87
74178;DHT22;62540;48.456;-4.456;2023-07-02T06:42:22;18.78;70.77
74178;DHT22;62540;48.456;-4.456;2023-07-02T06:44:48;18.99;70.73
74178;DHT22;62540;48.456;-4.456;2023-07-02T06:47:13;19.56;70.49
74178;DHT22;62540;48.456;-4.456;2023-07-02T06:49:38;19.97;69.32
74178;DHT22;62540;48.456;-4.456;2023-07-02T06:52:04;20.56;68.79
74178;DHT22;62540;48.456;-4.456;2023-07-02T06:54:29;21.17;67.81
74178;DHT22;62540;48.456;-4.456;2023-07-02T06:56:55;21.72;67.25
74178;DHT22;62540;48.456;-4.456;2023-07-02T06:59:23;22.30;66.13
74178;DHT22;62540;48.456;-4.456;2023-07-02T07:01:49;22.67;65.27
74178;DHT22;62540;48.456;-4.456;2023-07-02T07:04:15;22.76;64.62
74178;DHT22;62540;48.456;-4.456;2023-07-02T07:06:41;22.78;64.79
74178;DHT22;62540;48.456;-4.456;2023-07-02T07:09:06;22.75;64.24
74178;DHT22;62540;48.456;-4.456;2023-07-02T07:11:32;22.81;63.56
74178;DHT22;62540;48.456;-4.456;2023-07-02T07:13:57;23.18;63.29
74178;DHT22;62540;48.456;-4.456;2023-07-02T07:16:22;23.75;62.59
74178;DHT22;62540;48.456;-4.456;2023-07-02T07:18:48;24.42;61.56
74178;DHT22;62540;48.456;-4.456;2023-07-02T07:21:13;24.63;57.90
74178;DHT22;62540;48.456;-4.456;2023-07-02T07:23:39;24.69;59.37
74178;DHT22;62540;48.456;-4.456;2023-07-02T07:26:05;25.03;59.17
74178;DHT22;62540;48.456;-4.456;2023-07-02T07:28:30;25.41;58.23
74178;DHT22;62540;48.456;-4.456;2023-07-02T07:30:56;25.26;57.93
74178;DHT22;62540;48.456;-4.456;2023-07-02T07:33:21;25.00;57.78
74178;DHT22;62540;48.456;-4.456;2023-07-02T07:35:46;24.73;57.34
74178;DHT22;62540;48.456;-4.456;2023-07-02T07:38:15;24.60;58.11
74178;DHT22;62540;48.456;-4.456;2023-07-02T07:40:42;24.48;58.41
74178;DHT22;62540;48.456;-4.456;2023-07-02T07:43:08;24.22;58.29
74178;DHT22;62540;48.456;-4.456;2023-07-02T07:45:33;23.80;58.07
74178;DHT22;62540;48.456;-4.456;2023-07-02T07:47:59;23.47;58.54
74178;DHT22;62540;48.456;-4.456;2023-07-02T07:50:24;23.26;58.92
74178;DHT22;62540;48.456;-4.456;2023-07-02T07:52:50;22.98;58.67
74178;DHT22;62540;48.456;-4.456;2023-07-02T07:55:16;22.85;59.70
74178;DHT22;62540;48.456;-4.456;2023-07-02T07:57:42;22.72;59.28
74178;DHT22;62540;48.456;-4.456;2023-07-02T08:00:07;22.72;60.14
74178;DHT22;62540;48.456;-4.456;2023-07-02T08:02:34;22.74;60.36
74178;DHT22;62540;48.456;-4.456;2023-07-02T08:05:00;22.82;59.85
74178;DHT22;62540;48.456;-4.456;2023-07-02T08:07:25;22.79;58.56
74178;DHT22;62540;48.456;-4.456;2023-07-02T08:09:51;22.71;59.25
74178;DHT22;62540;48.456;-4.456;2023-07-02T08:12:16;22.68;60.09
74178;DHT22;62540;48.456;-4.456;2023-07-02T08:14:41;22.65;59.07
74178;DHT22;62540;48.456;-4.456;2023-07-02T08:17:07;22.63;59.82
74178;DHT22;62540;48.456;-4.456;2023-07-02T08:19:32;22.65;60.06
74178;DHT22;62540;48.456;-4.456;2023-07-02T08:21:58;22.71;60.21
74178;DHT22;62540;48.456;-4.456;2023-07-02T08:24:23;22.76;60.01
74178;DHT22;62540;48.456;-4.456;2023-07-02T08:26:48;22.79;59.67
74178;DHT22;62540;48.456;-4.456;2023-07-02T08:29:15;22.78;59.75
74178;DHT22;62540;48.456;-4.456;2023-07-02T08:31:40;22.72;59.58
74178;DHT22;62540;48.456;-4.456;2023-07-02T08:34:06;22.74;59.84
74178;DHT22;62540;48.456;-4.456;2023-07-02T08:36:32;22.67;59.41
74178;DHT22;62540;48.456;-4.456;2023-07-02T08:38:57;22.72;59.84
74178;DHT22;62540;48.456;-4.456;2023-07-02T08:41:22;22.72;59.68
74178;DHT22;62540;48.456;-4.456;2023-07-02T08:43:49;22.78;59.86
74178;DHT22;62540;48.456;-4.456;2023-07-02T08:46:16;22.92;59.76
74178;DHT22;62540;48.456;-4.456;2023-07-02T08:48:42;22.94;59.32
74178;DHT22;62540;48.456;-4.456;2023-07-02T08:51:08;22.99;59.59
74178;DHT22;62540;48.456;-4.456;2023-07-02T08:53:33;23.06;59.47
74178;DHT22;62540;48.456;-4.456;2023-07-02T08:56:03;23.16;58.83
74178;DHT22;62540;48.456;-4.456;2023-07-02T08:58:29;23.19;58.86
74178;DHT22;62540;48.456;-4.456;2023-07-02T09:01:11;23.22;58.16
74178;DHT22;62540;48.456;-4.456;2023-07-02T09:03:37;23.18;58.83
74178;DHT22;62540;48.456;-4.456;2023-07-02T09:06:04;23.26;59.02
74178;DHT22;62540;48.456;-4.456;2023-07-02T09:08:30;23.36;59.18
74178;DHT22;62540;48.456;-4.456;2023-07-02T09:13:46;23.47;58.39
74178;DHT22;62540;48.456;-4.456;2023-07-02T09:16:28;23.43;58.43
74178;DHT22;62540;48.456;-4.456;2023-07-02T09:21:47;23.20;58.26
74178;DHT22;62540;48.456;-4.456;2023-07-02T09:24:20;23.15;59.12
74178;DHT22;62540;48.456;-4.456;2023-07-02T09:26:50;23.23;59.40
74178;DHT22;62540;48.456;-4.456;2023-07-02T09:29:24;23.26;58.93
74178;DHT22;62540;48.456;-4.456;2023-07-02T09:31:51;23.40;59.41
74178;DHT22;62540;48.456;-4.456;2023-07-02T09:34:16;23.54;59.03
74178;DHT22;62540;48.456;-4.456;2023-07-02T09:36:43;23.74;58.45
74178;DHT22;62540;48.456;-4.456;2023-07-02T09:39:12;23.81;57.83
74178;DHT22;62540;48.456;-4.456;2023-07-02T09:41:40;23.87;57.89
74178;DHT22;62540;48.456;-4.456;2023-07-02T09:44:07;23.91;57.63
74178;DHT22;62540;48.456;-4.456;2023-07-02T09:46:34;24.00;57.18
74178;DHT22;62540;48.456;-4.456;2023-07-02T09:49:01;24.01;57.20
74178;DHT22;62540;48.456;-4.456;2023-07-02T09:51:28;23.88;55.55
74178;DHT22;62540;48.456;-4.456;2023-07-02T09:53:53;23.70;54.93
74178;DHT22;62540;48.456;-4.456;2023-07-02T09:56:19;23.54;55.72
74178;DHT22;62540;48.456;-4.456;2023-07-02T09:58:46;23.49;54.96
74178;DHT22;62540;48.456;-4.456;2023-07-02T10:01:12;23.34;54.97
74178;DHT22;62540;48.456;-4.456;2023-07-02T10:03:37;23.29;55.09
74178;DHT22;62540;48.456;-4.456;2023-07-02T10:06:06;23.22;55.70
74178;DHT22;62540;48.456;-4.456;2023-07-02T10:08:32;23.27;55.91
74178;DHT22;62540;48.456;-4.456;2023-07-02T10:11:11;23.23;55.68
74178;DHT22;62540;48.456;-4.456;2023-07-02T10:13:38;23.20;56.14
74178;DHT22;62540;48.456;-4.456;2023-07-02T10:16:04;23.13;55.49
74178;DHT22;62540;48.456;-4.456;2023-07-02T10:18:30;23.08;56.01
74178;DHT22;62540;48.456;-4.456;2023-07-02T10:20:55;23.15;56.22
74178;DHT22;62540;48.456;-4.456;2023-07-02T10:23:33;23.32;55.85
74178;DHT22;62540;48.456;-4.456;2023-07-02T10:26:09;23.43;56.05
74178;DHT22;62540;48.456;-4.456;2023-07-02T10:28:35;23.50;56.14
74178;DHT22;62540;48.456;-4.456;2023-07-02T10:31:00;23.57;55.99
74178;DHT22;62540;48.456;-4.456;2023-07-02T10:33:25;23.67;56.09
74178;DHT22;62540;48.456;-4.456;2023-07-02T10:35:51;23.75;55.79
74178;DHT22;62540;48.456;-4.456;2023-07-02T10:38:21;23.84;55.87
74178;DHT22;62540;48.456;-4.456;2023-07-02T10:40:54;23.98;55.45
74178;DHT22;62540;48.456;-4.456;2023-07-02T10:43:26;24.10;55.83
74178;DHT22;62540;48.456;-4.456;2023-07-02T10:45:54;24.22;56.00
74178;DHT22;62540;48.456;-4.456;2023-07-02T10:48:19;24.35;55.85
74178;DHT22;62540;48.456;-4.456;2023-07-02T10:50:45;24.46;55.20
74178;DHT22;62540;48.456;-4.456;2023-07-02T10:53:17;24.65;55.46
74178;DHT22;62540;48.456;-4.456;2023-07-02T10:55:43;24.84;55.46
74178;DHT22;62540;48.456;-4.456;2023-07-02T10:58:09;25.16;55.37
74178;DHT22;62540;48.456;-4.456;2023-07-02T11:00:46;25.34;54.48
74178;DHT22;62540;48.456;-4.456;2023-07-02T11:03:18;25.47;54.45
74178;DHT22;62540;48.456;-4.456;2023-07-02T11:05:46;25.61;54.14
74178;DHT22;62540;48.456;-4.456;2023-07-02T11:08:12;25.72;54.46
74178;DHT22;62540;48.456;-4.456;2023-07-02T11:10:38;25.86;54.14
74178;DHT22;62540;48.456;-4.456;2023-07-02T11:13:17;26.09;53.49
74178;DHT22;62540;48.456;-4.456;2023-07-02T11:15:43;26.29;53.62
74178;DHT22;62540;48.456;-4.456;2023-07-02T11:18:11;26.53;53.81
74178;DHT22;62540;48.456;-4.456;2023-07-02T11:20:38;26.68;52.75
74178;DHT22;62540;48.456;-4.456;2023-07-02T11:23:04;26.82;53.00
74178;DHT22;62540;48.456;-4.456;2023-07-02T11:25:29;26.98;52.31
74178;DHT22;62540;48.456;-4.456;2023-07-02T11:28:04;27.08;50.40
74178;DHT22;62540;48.456;-4.456;2023-07-02T11:30:30;27.20;52.25
74178;DHT22;62540;48.456;-4.456;2023-07-02T11:32:56;27.28;50.17
74178;DHT22;62540;48.456;-4.456;2023-07-02T11:35:22;27.26;50.89
74178;DHT22;62540;48.456;-4.456;2023-07-02T11:37:48;27.18;50.88
74178;DHT22;62540;48.456;-4.456;2023-07-02T11:40:19;27.13;49.11
74178;DHT22;62540;48.456;-4.456;2023-07-02T11:42:44;27.13;51.18
74178;DHT22;62540;48.456;-4.456;2023-07-02T11:45:10;27.18;50.69
74178;DHT22;62540;48.456;-4.456;2023-07-02T11:47:35;27.28;50.74
74178;DHT22;62540;48.456;-4.456;2023-07-02T11:50:02;27.29;50.49
74178;DHT22;62540;48.456;-4.456;2023-07-02T11:52:28;27.29;50.76
74178;DHT22;62540;48.456;-4.456;2023-07-02T11:54:53;27.26;50.34
74178;DHT22;62540;48.456;-4.456;2023-07-02T11:57:19;27.11;50.11
74178;DHT22;62540;48.456;-4.456;2023-07-02T11:59:46;26.95;49.79
74178;DHT22;62540;48.456;-4.456;2023-07-02T12:02:12;26.74;50.54
74178;DHT22;62540;48.456;-4.456;2023-07-02T12:04:38;26.62;51.04
74178;DHT22;62540;48.456;-4.456;2023-07-02T12:07:04;26.58;51.23
74178;DHT22;62540;48.456;-4.456;2023-07-02T12:09:29;26.60;51.16
74178;DHT22;62540;48.456;-4.456;2023-07-02T12:11:55;26.70;51.04
74178;DHT22;62540;48.456;-4.456;2023-07-02T12:14:20;26.74;51.20
74178;DHT22;62540;48.456;-4.456;2023-07-02T12:16:45;26.81;51.15
74178;DHT22;62540;48.456;-4.456;2023-07-02T12:19:11;26.74;50.77
74178;DHT22;62540;48.456;-4.456;2023-07-02T12:21:36;26.65;50.47
74178;DHT22;62540;48.456;-4.456;2023-07-02T12:24:02;26.61;50.51
74178;DHT22;62540;48.456;-4.456;2023-07-02T12:26:27;26.55;50.95
74178;DHT22;62540;48.456;-4.456;2023-07-02T12:28:54;26.45;50.36
74178;DHT22;62540;48.456;-4.456;2023-07-02T12:31:19;26.37;50.88
74178;DHT22;62540;48.456;-4.456;2023-07-02T12:33:45;26.23;51.12
74178;DHT22;62540;48.456;-4.456;2023-07-02T12:36:10;26.23;51.40
74178;DHT22;62540;48.456;-4.456;2023-07-02T12:38:35;26.20;51.03
74178;DHT22;62540;48.456;-4.456;2023-07-02T12:41:01;26.16;51.58
74178;DHT22;62540;48.456;-4.456;2023-07-02T12:43:26;26.20;51.30
74178;DHT22;62540;48.456;-4.456;2023-07-02T12:45:51;26.23;51.19
74178;DHT22;62540;48.456;-4.456;2023-07-02T12:48:17;26.19;50.99
74178;DHT22;62540;48.456;-4.456;2023-07-02T12:50:53;26.03;49.67
74178;DHT22;62540;48.456;-4.456;2023-07-02T12:53:19;26.02;50.87
74178;DHT22;62540;48.456;-4.456;2023-07-02T12:55:45;25.92;50.93
74178;DHT22;62540;48.456;-4.456;2023-07-02T12:58:10;25.88;51.18
74178;DHT22;62540;48.456;-4.456;2023-07-02T13:00:35;25.83;50.68
74178;DHT22;62540;48.456;-4.456;2023-07-02T13:03:02;25.74;51.85
74178;DHT22;62540;48.456;-4.456;2023-07-02T13:05:27;25.69;52.33
74178;DHT22;62540;48.456;-4.456;2023-07-02T13:07:52;25.71;52.58
74178;DHT22;62540;48.456;-4.456;2023-07-02T13:10:18;25.61;52.93
74178;DHT22;62540;48.456;-4.456;2023-07-02T13:12:43;25.49;53.32
74178;DHT22;62540;48.456;-4.456;2023-07-02T13:15:09;25.45;53.82
74178;DHT22;62540;48.456;-4.456;2023-07-02T13:17:34;25.49;53.88
74178;DHT22;62540;48.456;-4.456;2023-07-02T13:20:00;25.49;54.17
74178;DHT22;62540;48.456;-4.456;2023-07-02T13:22:25;25.49;54.12
74178;DHT22;62540;48.456;-4.456;2023-07-02T13:24:50;25.44;53.96
74178;DHT22;62540;48.456;-4.456;2023-07-02T13:27:17;25.39;54.15
74178;DHT22;62540;48.456;-4.456;2023-07-02T13:29:43;25.45;54.19
74178;DHT22;62540;48.456;-4.456;2023-07-02T13:32:08;25.34;54.59
74178;DHT22;62540;48.456;-4.456;2023-07-02T13:34:33;25.24;55.26
74178;DHT22;62540;48.456;-4.456;2023-07-02T13:36:59;25.17;55.73
74178;DHT22;62540;48.456;-4.456;2023-07-02T13:39:27;25.03;56.73
74178;DHT22;62540;48.456;-4.456;2023-07-02T13:41:52;24.83;58.19
74178;DHT22;62540;48.456;-4.456;2023-07-02T13:44:17;24.65;57.94
74178;DHT22;62540;48.456;-4.456;2023-07-02T13:46:44;24.62;58.29
74178;DHT22;62540;48.456;-4.456;2023-07-02T13:49:10;24.56;58.74
74178;DHT22;62540;48.456;-4.456;2023-07-02T13:51:36;24.55;59.06
74178;DHT22;62540;48.456;-4.456;2023-07-02T13:54:01;24.45;59.53
74178;DHT22;62540;48.456;-4.456;2023-07-02T13:56:27;24.29;60.79
74178;DHT22;62540;48.456;-4.456;2023-07-02T14:01:21;24.05;61.19
74178;DHT22;62540;48.456;-4.456;2023-07-02T14:03:46;24.00;61.00
74178;DHT22;62540;48.456;-4.456;2023-07-02T14:06:12;23.81;61.54
74178;DHT22;62540;48.456;-4.456;2023-07-02T14:08:37;23.67;61.54
74178;DHT22;62540;48.456;-4.456;2023-07-02T14:11:03;23.56;61.96
74178;DHT22;62540;48.456;-4.456;2023-07-02T14:13:28;23.56;62.10
74178;DHT22;62540;48.456;-4.456;2023-07-02T14:15:54;23.53;62.11
74178;DHT22;62540;48.456;-4.456;2023-07-02T14:18:19;23.56;62.15
74178;DHT22;62540;48.456;-4.456;2023-07-02T14:20:44;23.63;62.35
74178;DHT22;62540;48.456;-4.456;2023-07-02T14:23:10;23.73;62.81
74178;DHT22;62540;48.456;-4.456;2023-07-02T14:25:35;23.61;63.87
74178;DHT22;62540;48.456;-4.456;2023-07-02T14:28:01;23.56;62.59
74178;DHT22;62540;48.456;-4.456;2023-07-02T14:30:26;23.50;62.87
74178;DHT22;62540;48.456;-4.456;2023-07-02T14:32:52;23.57;62.73
74178;DHT22;62540;48.456;-4.456;2023-07-02T14:35:18;23.70;63.20
74178;DHT22;62540;48.456;-4.456;2023-07-02T14:37:47;23.82;63.40
74178;DHT22;62540;48.456;-4.456;2023-07-02T14:40:12;23.94;63.13
74178;DHT22;62540;48.456;-4.456;2023-07-02T14:42:38;24.01;62.96
74178;DHT22;62540;48.456;-4.456;2023-07-02T14:45:03;24.04;62.98
74178;DHT22;62540;48.456;-4.456;2023-07-02T14:47:29;24.11;62.89
74178;DHT22;62540;48.456;-4.456;2023-07-02T14:49:55;24.17;62.84
74178;DHT22;62540;48.456;-4.456;2023-07-02T14:52:20;24.15;62.92
74178;DHT22;62540;48.456;-4.456;2023-07-02T14:54:45;24.21;62.87
74178;DHT22;62540;48.456;-4.456;2023-07-02T14:57:11;24.28;62.56
74178;DHT22;62540;48.456;-4.456;2023-07-02T14:59:36;24.35;62.34
74178;DHT22;62540;48.456;-4.456;2023-07-02T15:02:02;24.40;62.31
74178;DHT22;62540;48.456;-4.456;2023-07-02T15:04:27;24.42;62.12
74178;DHT22;62540;48.456;-4.456;2023-07-02T15:06:53;24.53;62.05
74178;DHT22;62540;48.456;-4.456;2023-07-02T15:09:18;24.62;61.94
74178;DHT22;62540;48.456;-4.456;2023-07-02T15:11:44;24.72;61.99
74178;DHT22;62540;48.456;-4.456;2023-07-02T15:14:09;24.77;61.57
74178;DHT22;62540;48.456;-4.456;2023-07-02T15:16:34;24.72;61.30